Airfield :
LOGIN :

Register | Disclaimer

   EN    FR    IT 

 










Legend :    VFR   Marginal VFR   IFR   Intensive IFR   Very Intensive IFR
Visi :
Ceiling :
>= 8 km
>= 3000ft
5 to 8 km
1000 to 3000 ft
1500m to 5 km
500 to 1000 ft
800 to 1500m
200 to 500 ft
< 800m
< 200 ft
Symbols :   Thunderstorms  Fog  Heavy snow  Heavy precipitations  Wind > 20 kt
SIGMETs :     Misc.  Thunderstorms  Icing  Turbulence  Mountain Waves  Volcanic Ashes







- Airport Elevation : 147 ft
- IATA code : DUS


EDDL - Düsseldorf Int.

CURRENT METAR :
  • 160850Z 25003KT 6000 FEW005 01/00 Q1009 TEMPO BKN006

EXPIRED METARs :
  • 160820Z 25003KT 6000 FEW005 02/01 Q1009 TEMPO BKN006
  • 160750Z 25004KT 5000 BR FEW004 SCT006 02/01 Q1008 TEMPO BKN006
  • 160720Z 28004KT 250V320 4500 BR BKN006 03/02 Q1008 BECMG 6000 SCT010
  • 160650Z 28005KT 260V320 5000 BR BKN005 03/02 Q1007 TEMPO 3000 BKN004
  • 160620Z 28005KT 250V320 5000 BR BKN005 03/02 Q1007 TEMPO 3000 BKN004

TAF TAF EDDL
Valid from the 16 at 06:00 until the 17 at 12:00 UTC


160500Z 1606/1712 VRB03KT 9999 BKN030
TEMPO 1606/1612 3500 -RA BR BKN007
BECMG 1606/1608 26007KT
TEMPO 1615/1706 4000 -SHRA BKN012TCU
PROB40
TEMPO 1702/1709 BKN007
No reported NOTAMs for that airfield.



MET'MAP, your aeronautical weather chart ! - Copyright ORBIFLY December 2007 - Disclaimer

ORBIFLY MET'MAP TEAM :

Programming & Development : Alexandra Zaïnal
Concept & Development : Baudouin d'Aumeries
Co-Development & Prog : Marc-Olivier Méhu
Technical & hardware support : Manuel Goepfert

Contact : metmap@orbifly.com




SOURCES & CREDITS :

   NOAA